Cotton, MN (55724)

9:45 AM CDT on September 01, 2015 (GMT -0500)
Leisure Lake,Mn | | Change Station
CLOSE
Current Station
Personal Weather Station
Location: Makinen, MN
Elevation: 1427 ft
Nearby Weather Stations

Elev 1427 ft 47.33 °N, 92.34 °W | Updated 10 minutes ago

Partly Cloudy
Partly Cloudy
78.4 °F
Feels Like 81 °F
N
0.0
Wind Variable Wind from NNW

Today
High -- | Low -- °F
--% Chance of Precip.
Yesterday
High -- | Low -- °F
Precip. -- in
6:28 AM 7:50 PM
Waning Gibbous, 88% visible
Pressure 29.94 in
Visibility 10.0 miles
Clouds Clear
Heat Index 81 °F
Dew Point 69 °F
Humidity 73%
Rainfall 0.00 in
Snow Depth Not available.
UV 3 out of 12
Pollen 9.10 out of 12
Air Quality Not available.
Flu Activity Not available.
METAR KEVM 011433Z AUTO 00000KT 10SM CLR 20/19 A2994 RMK AO2
Pressure 29.94 in
Visibility 10.0 miles
Clouds Clear
Heat Index 81 °F
Dew Point 69 °F
Humidity 73%
Rainfall 0.00 in
Snow Depth Not available.
UV 3 out of 12
Pollen 9.10 out of 12
Air Quality Not available.
Flu Activity Not available.
METAR KEVM 011433Z AUTO 00000KT 10SM CLR 20/19 A2994 RMK AO2

10-Day Weather Forecast

×

Almanac

Astronomy

Sep. 01, 2015 Rise Set
Actual Time
Civil Twilight
Nautical Twilight
Astronomical Twilight
Moon
Length of Visible Light
Length of Day
Tomorrow will be .
, % of the Moon is Illuminated

Today's Extremes

State Highs State Lows

Community

WunderPhotos

Upload Photos

1,851,513 photos uploaded!

WunderBlogs® & News

Nearby

Air Quality

  Air Quality AQ Index Pollutant
Not available.

Snow Depth

Station Depth Elevation

Earthquake Activity

City Distance Mag. Time & Date
Minimum magnitude displayed is 2.5.

Coastal Water Temperatures

Place Temperature

Stations

Nearby Weather Stations

Station Location Temp. Windchill Dew Point Humidity Wind Precip. Elev Updated Type